sensor_id;sensor_type;location;lat;lon;timestamp;temperature;humidity
55091;DHT22;40985;53.180;5.800;2023-09-19T00:00:42;13.30;99.90
55091;DHT22;40985;53.180;5.800;2023-09-19T00:03:10;13.30;99.90
55091;DHT22;40985;53.180;5.800;2023-09-19T00:05:37;13.40;99.90
55091;DHT22;40985;53.180;5.800;2023-09-19T00:08:09;13.40;99.90
55091;DHT22;40985;53.180;5.800;2023-09-19T00:10:35;13.40;99.90
55091;DHT22;40985;53.180;5.800;2023-09-19T00:13:02;13.50;99.90
55091;DHT22;40985;53.180;5.800;2023-09-19T00:15:46;13.60;99.90
55091;DHT22;40985;53.180;5.800;2023-09-19T00:18:14;13.60;99.90
55091;DHT22;40985;53.180;5.800;2023-09-19T00:20:41;13.60;99.90
55091;DHT22;40985;53.180;5.800;2023-09-19T00:23:07;13.60;99.90
55091;DHT22;40985;53.180;5.800;2023-09-19T00:25:37;13.60;99.90
55091;DHT22;40985;53.180;5.800;2023-09-19T00:28:07;13.50;99.90
55091;DHT22;40985;53.180;5.800;2023-09-19T00:30:34;13.50;99.90
55091;DHT22;40985;53.180;5.800;2023-09-19T00:32:59;13.30;99.90
55091;DHT22;40985;53.180;5.800;2023-09-19T00:35:26;13.30;99.90
55091;DHT22;40985;53.180;5.800;2023-09-19T00:37:53;13.20;99.90
55091;DHT22;40985;53.180;5.800;2023-09-19T00:40:19;13.10;99.90
55091;DHT22;40985;53.180;5.800;2023-09-19T00:42:47;13.10;99.90
55091;DHT22;40985;53.180;5.800;2023-09-19T00:45:16;13.00;99.90
55091;DHT22;40985;53.180;5.800;2023-09-19T00:47:49;13.00;99.90
55091;DHT22;40985;53.180;5.800;2023-09-19T00:50:20;12.90;99.90
55091;DHT22;40985;53.180;5.800;2023-09-19T00:52:49;12.90;99.90
55091;DHT22;40985;53.180;5.800;2023-09-19T00:55:16;12.80;99.90
55091;DHT22;40985;53.180;5.800;2023-09-19T00:57:45;12.80;99.90
55091;DHT22;40985;53.180;5.800;2023-09-19T01:00:11;12.80;99.90
55091;DHT22;40985;53.180;5.800;2023-09-19T01:02:42;12.80;99.90
55091;DHT22;40985;53.180;5.800;2023-09-19T01:05:11;12.70;99.90
55091;DHT22;40985;53.180;5.800;2023-09-19T01:07:41;12.60;99.90
55091;DHT22;40985;53.180;5.800;2023-09-19T01:10:09;12.60;99.90
55091;DHT22;40985;53.180;5.800;2023-09-19T01:20:50;12.40;99.90
55091;DHT22;40985;53.180;5.800;2023-09-19T01:23:39;12.40;99.90
55091;DHT22;40985;53.180;5.800;2023-09-19T01:26:18;12.50;99.90
55091;DHT22;40985;53.180;5.800;2023-09-19T01:31:45;12.70;99.90
55091;DHT22;40985;53.180;5.800;2023-09-19T01:34:12;12.80;99.90
55091;DHT22;40985;53.180;5.800;2023-09-19T01:36:38;12.80;99.90
55091;DHT22;40985;53.180;5.800;2023-09-19T01:39:05;12.80;99.90
55091;DHT22;40985;53.180;5.800;2023-09-19T01:44:15;12.80;99.90
55091;DHT22;40985;53.180;5.800;2023-09-19T01:46:44;12.80;99.90
55091;DHT22;40985;53.180;5.800;2023-09-19T01:52:00;12.90;99.90
55091;DHT22;40985;53.180;5.800;2023-09-19T01:54:32;12.80;99.90
55091;DHT22;40985;53.180;5.800;2023-09-19T01:57:07;12.80;99.90
55091;DHT22;40985;53.180;5.800;2023-09-19T01:59:52;12.80;99.90
55091;DHT22;40985;53.180;5.800;2023-09-19T02:02:21;12.90;99.90
55091;DHT22;40985;53.180;5.800;2023-09-19T02:04:48;12.90;99.90
55091;DHT22;40985;53.180;5.800;2023-09-19T02:07:16;12.80;99.90
55091;DHT22;40985;53.180;5.800;2023-09-19T02:09:42;12.80;99.90
55091;DHT22;40985;53.180;5.800;2023-09-19T02:12:09;12.80;99.90
55091;DHT22;40985;53.180;5.800;2023-09-19T02:14:35;12.70;99.90
55091;DHT22;40985;53.180;5.800;2023-09-19T02:17:04;12.70;99.90
55091;DHT22;40985;53.180;5.800;2023-09-19T02:19:35;12.70;99.90
55091;DHT22;40985;53.180;5.800;2023-09-19T02:22:01;12.80;99.90
55091;DHT22;40985;53.180;5.800;2023-09-19T02:24:33;12.80;99.90
55091;DHT22;40985;53.180;5.800;2023-09-19T02:26:59;12.90;99.90
55091;DHT22;40985;53.180;5.800;2023-09-19T02:29:29;12.90;99.90
55091;DHT22;40985;53.180;5.800;2023-09-19T02:31:55;13.00;99.90
55091;DHT22;40985;53.180;5.800;2023-09-19T02:34:22;13.00;99.90
55091;DHT22;40985;53.180;5.800;2023-09-19T02:36:47;13.10;99.90
55091;DHT22;40985;53.180;5.800;2023-09-19T02:39:13;13.10;99.90
55091;DHT22;40985;53.180;5.800;2023-09-19T02:41:39;12.90;99.90
55091;DHT22;40985;53.180;5.800;2023-09-19T02:44:05;12.80;99.90
55091;DHT22;40985;53.180;5.800;2023-09-19T02:46:34;12.70;99.90
55091;DHT22;40985;53.180;5.800;2023-09-19T02:49:02;12.60;99.90
55091;DHT22;40985;53.180;5.800;2023-09-19T02:51:29;12.60;99.90
55091;DHT22;40985;53.180;5.800;2023-09-19T02:53:54;12.60;99.90
55091;DHT22;40985;53.180;5.800;2023-09-19T02:56:20;12.60;99.90
55091;DHT22;40985;53.180;5.800;2023-09-19T02:58:46;12.60;99.90
55091;DHT22;40985;53.180;5.800;2023-09-19T03:01:13;12.60;99.90
55091;DHT22;40985;53.180;5.800;2023-09-19T03:03:44;12.50;99.90
55091;DHT22;40985;53.180;5.800;2023-09-19T03:06:10;12.50;99.90
55091;DHT22;40985;53.180;5.800;2023-09-19T03:08:38;12.40;99.90
55091;DHT22;40985;53.180;5.800;2023-09-19T03:11:08;12.40;99.90
55091;DHT22;40985;53.180;5.800;2023-09-19T03:13:36;12.40;99.90
55091;DHT22;40985;53.180;5.800;2023-09-19T03:16:04;12.30;99.90
55091;DHT22;40985;53.180;5.800;2023-09-19T03:18:32;12.30;99.90
55091;DHT22;40985;53.180;5.800;2023-09-19T03:20:59;12.30;99.90
55091;DHT22;40985;53.180;5.800;2023-09-19T03:23:26;12.30;99.90
55091;DHT22;40985;53.180;5.800;2023-09-19T03:25:53;12.30;99.90
55091;DHT22;40985;53.180;5.800;2023-09-19T03:28:19;12.30;99.90
55091;DHT22;40985;53.180;5.800;2023-09-19T03:30:46;12.30;99.90
55091;DHT22;40985;53.180;5.800;2023-09-19T03:33:12;12.30;99.90
55091;DHT22;40985;53.180;5.800;2023-09-19T03:35:39;12.40;99.90
55091;DHT22;40985;53.180;5.800;2023-09-19T03:38:05;12.40;99.90
55091;DHT22;40985;53.180;5.800;2023-09-19T03:40:31;12.40;99.90
55091;DHT22;40985;53.180;5.800;2023-09-19T03:42:58;12.50;99.90
55091;DHT22;40985;53.180;5.800;2023-09-19T03:45:25;12.40;99.90
55091;DHT22;40985;53.180;5.800;2023-09-19T03:47:51;12.50;99.90
55091;DHT22;40985;53.180;5.800;2023-09-19T03:50:16;12.50;99.90
55091;DHT22;40985;53.180;5.800;2023-09-19T03:52:43;12.40;99.90
55091;DHT22;40985;53.180;5.800;2023-09-19T03:55:09;12.40;99.90
55091;DHT22;40985;53.180;5.800;2023-09-19T03:57:38;12.40;99.90
55091;DHT22;40985;53.180;5.800;2023-09-19T04:00:04;12.50;99.90
55091;DHT22;40985;53.180;5.800;2023-09-19T04:02:38;12.50;99.90
55091;DHT22;40985;53.180;5.800;2023-09-19T04:05:04;12.50;99.90
55091;DHT22;40985;53.180;5.800;2023-09-19T04:07:30;12.70;99.90
55091;DHT22;40985;53.180;5.800;2023-09-19T04:09:55;12.70;99.90
55091;DHT22;40985;53.180;5.800;2023-09-19T04:12:21;12.70;99.90
55091;DHT22;40985;53.180;5.800;2023-09-19T04:14:47;12.80;99.90
55091;DHT22;40985;53.180;5.800;2023-09-19T04:17:14;12.80;99.90
55091;DHT22;40985;53.180;5.800;2023-09-19T04:19:40;12.90;99.90
55091;DHT22;40985;53.180;5.800;2023-09-19T04:22:07;12.90;99.90
55091;DHT22;40985;53.180;5.800;2023-09-19T04:24:32;12.90;99.90
55091;DHT22;40985;53.180;5.800;2023-09-19T04:26:59;13.00;99.90
55091;DHT22;40985;53.180;5.800;2023-09-19T04:29:25;12.90;99.90
55091;DHT22;40985;53.180;5.800;2023-09-19T04:31:52;13.00;99.90
55091;DHT22;40985;53.180;5.800;2023-09-19T04:34:17;13.00;99.90
55091;DHT22;40985;53.180;5.800;2023-09-19T04:36:43;13.00;99.90
55091;DHT22;40985;53.180;5.800;2023-09-19T04:39:09;13.00;99.90
55091;DHT22;40985;53.180;5.800;2023-09-19T04:41:37;13.10;99.90
55091;DHT22;40985;53.180;5.800;2023-09-19T04:44:06;13.10;99.90
55091;DHT22;40985;53.180;5.800;2023-09-19T04:46:33;13.10;99.90
55091;DHT22;40985;53.180;5.800;2023-09-19T04:48:58;13.00;99.90
55091;DHT22;40985;53.180;5.800;2023-09-19T04:51:24;13.00;99.90
55091;DHT22;40985;53.180;5.800;2023-09-19T04:53:52;13.10;99.90
55091;DHT22;40985;53.180;5.800;2023-09-19T04:56:17;13.00;99.90
55091;DHT22;40985;53.180;5.800;2023-09-19T04:58:44;13.10;99.90
55091;DHT22;40985;53.180;5.800;2023-09-19T05:01:10;13.10;99.90
55091;DHT22;40985;53.180;5.800;2023-09-19T05:03:37;13.20;99.90
55091;DHT22;40985;53.180;5.800;2023-09-19T05:06:03;13.20;99.90
55091;DHT22;40985;53.180;5.800;2023-09-19T05:08:30;13.20;99.90
55091;DHT22;40985;53.180;5.800;2023-09-19T05:10:56;13.20;99.90
55091;DHT22;40985;53.180;5.800;2023-09-19T05:13:22;13.30;99.90
55091;DHT22;40985;53.180;5.800;2023-09-19T05:15:49;13.30;99.90
55091;DHT22;40985;53.180;5.800;2023-09-19T05:18:18;13.30;99.90
55091;DHT22;40985;53.180;5.800;2023-09-19T05:20:43;13.30;99.90
55091;DHT22;40985;53.180;5.800;2023-09-19T05:23:09;13.40;99.90
55091;DHT22;40985;53.180;5.800;2023-09-19T05:25:37;13.40;99.90
55091;DHT22;40985;53.180;5.800;2023-09-19T05:28:04;13.30;99.90
55091;DHT22;40985;53.180;5.800;2023-09-19T05:30:31;13.20;99.90
55091;DHT22;40985;53.180;5.800;2023-09-19T05:32:57;13.20;99.90
55091;DHT22;40985;53.180;5.800;2023-09-19T05:35:24;13.10;99.90
55091;DHT22;40985;53.180;5.800;2023-09-19T05:37:53;13.10;99.90
55091;DHT22;40985;53.180;5.800;2023-09-19T05:40:20;13.00;99.90
55091;DHT22;40985;53.180;5.800;2023-09-19T05:42:46;13.00;99.90
55091;DHT22;40985;53.180;5.800;2023-09-19T05:45:13;13.00;99.90
55091;DHT22;40985;53.180;5.800;2023-09-19T05:47:42;13.10;99.90
55091;DHT22;40985;53.180;5.800;2023-09-19T05:50:12;13.10;99.90
55091;DHT22;40985;53.180;5.800;2023-09-19T05:52:38;13.20;99.90
55091;DHT22;40985;53.180;5.800;2023-09-19T05:55:07;13.30;99.90
55091;DHT22;40985;53.180;5.800;2023-09-19T05:57:37;13.30;99.90
55091;DHT22;40985;53.180;5.800;2023-09-19T06:00:08;13.30;99.90
55091;DHT22;40985;53.180;5.800;2023-09-19T06:02:36;13.40;99.90
55091;DHT22;40985;53.180;5.800;2023-09-19T06:05:05;13.40;99.90
55091;DHT22;40985;53.180;5.800;2023-09-19T06:07:32;13.40;99.90
55091;DHT22;40985;53.180;5.800;2023-09-19T06:10:05;13.40;99.90
55091;DHT22;40985;53.180;5.800;2023-09-19T06:12:31;13.40;99.90
55091;DHT22;40985;53.180;5.800;2023-09-19T06:15:03;13.40;99.90
55091;DHT22;40985;53.180;5.800;2023-09-19T06:17:30;13.50;99.90
55091;DHT22;40985;53.180;5.800;2023-09-19T06:19:56;13.50;99.90
55091;DHT22;40985;53.180;5.800;2023-09-19T06:22:22;13.60;99.90
55091;DHT22;40985;53.180;5.800;2023-09-19T06:24:50;13.60;99.90
55091;DHT22;40985;53.180;5.800;2023-09-19T06:27:15;13.70;99.90
55091;DHT22;40985;53.180;5.800;2023-09-19T06:29:41;13.70;99.90
55091;DHT22;40985;53.180;5.800;2023-09-19T06:32:10;13.80;99.90
55091;DHT22;40985;53.180;5.800;2023-09-19T06:34:36;13.80;99.90
55091;DHT22;40985;53.180;5.800;2023-09-19T06:37:04;13.80;99.90
55091;DHT22;40985;53.180;5.800;2023-09-19T06:39:31;13.80;99.90
55091;DHT22;40985;53.180;5.800;2023-09-19T06:41:57;13.90;99.90
55091;DHT22;40985;53.180;5.800;2023-09-19T06:44:23;13.90;99.90
55091;DHT22;40985;53.180;5.800;2023-09-19T06:46:50;13.90;99.90
55091;DHT22;40985;53.180;5.800;2023-09-19T06:49:17;13.90;99.90
55091;DHT22;40985;53.180;5.800;2023-09-19T06:51:43;13.90;99.90
55091;DHT22;40985;53.180;5.800;2023-09-19T06:54:09;14.00;99.90
55091;DHT22;40985;53.180;5.800;2023-09-19T06:56:35;14.10;99.90
55091;DHT22;40985;53.180;5.800;2023-09-19T06:59:01;14.10;99.90
55091;DHT22;40985;53.180;5.800;2023-09-19T07:01:28;14.10;99.90
55091;DHT22;40985;53.180;5.800;2023-09-19T07:03:54;14.10;99.90
55091;DHT22;40985;53.180;5.800;2023-09-19T07:06:20;14.20;99.90
55091;DHT22;40985;53.180;5.800;2023-09-19T07:08:46;14.30;99.90
55091;DHT22;40985;53.180;5.800;2023-09-19T07:11:11;14.30;99.90
55091;DHT22;40985;53.180;5.800;2023-09-19T07:13:38;14.30;99.90
55091;DHT22;40985;53.180;5.800;2023-09-19T07:16:04;14.30;99.90
55091;DHT22;40985;53.180;5.800;2023-09-19T07:18:30;14.30;99.90
55091;DHT22;40985;53.180;5.800;2023-09-19T07:20:58;14.30;99.90
55091;DHT22;40985;53.180;5.800;2023-09-19T07:23:30;14.30;99.90
55091;DHT22;40985;53.180;5.800;2023-09-19T07:26:01;14.20;99.90
55091;DHT22;40985;53.180;5.800;2023-09-19T07:28:27;14.30;99.90
55091;DHT22;40985;53.180;5.800;2023-09-19T07:30:53;14.30;99.90
55091;DHT22;40985;53.180;5.800;2023-09-19T07:33:19;14.30;99.90
55091;DHT22;40985;53.180;5.800;2023-09-19T07:35:48;14.40;99.90
55091;DHT22;40985;53.180;5.800;2023-09-19T07:38:14;14.50;99.90
55091;DHT22;40985;53.180;5.800;2023-09-19T07:40:40;14.60;99.90
55091;DHT22;40985;53.180;5.800;2023-09-19T07:43:06;14.70;99.90
55091;DHT22;40985;53.180;5.800;2023-09-19T07:45:32;14.80;99.90
55091;DHT22;40985;53.180;5.800;2023-09-19T07:47:58;14.90;99.90
55091;DHT22;40985;53.180;5.800;2023-09-19T07:50:25;14.90;99.90
55091;DHT22;40985;53.180;5.800;2023-09-19T07:52:52;15.00;99.90
55091;DHT22;40985;53.180;5.800;2023-09-19T07:55:19;15.00;99.90
55091;DHT22;40985;53.180;5.800;2023-09-19T07:57:48;15.10;99.90
55091;DHT22;40985;53.180;5.800;2023-09-19T08:00:14;15.10;99.90
55091;DHT22;40985;53.180;5.800;2023-09-19T08:02:41;15.20;99.90
55091;DHT22;40985;53.180;5.800;2023-09-19T08:05:08;15.30;99.90
55091;DHT22;40985;53.180;5.800;2023-09-19T08:07:41;15.30;99.90
55091;DHT22;40985;53.180;5.800;2023-09-19T08:10:08;15.40;99.90
55091;DHT22;40985;53.180;5.800;2023-09-19T08:12:36;15.40;99.90
55091;DHT22;40985;53.180;5.800;2023-09-19T08:15:03;15.40;99.90
55091;DHT22;40985;53.180;5.800;2023-09-19T08:17:33;15.50;99.90
55091;DHT22;40985;53.180;5.800;2023-09-19T08:19:59;15.50;99.90
55091;DHT22;40985;53.180;5.800;2023-09-19T08:22:25;15.60;99.90
55091;DHT22;40985;53.180;5.800;2023-09-19T08:24:52;15.60;99.90
55091;DHT22;40985;53.180;5.800;2023-09-19T08:27:18;15.70;99.90
55091;DHT22;40985;53.180;5.800;2023-09-19T08:29:45;15.70;99.90
55091;DHT22;40985;53.180;5.800;2023-09-19T08:32:12;15.70;99.90
55091;DHT22;40985;53.180;5.800;2023-09-19T08:34:37;15.80;99.90
55091;DHT22;40985;53.180;5.800;2023-09-19T08:37:03;15.80;99.90
55091;DHT22;40985;53.180;5.800;2023-09-19T08:39:30;15.90;99.90
55091;DHT22;40985;53.180;5.800;2023-09-19T08:41:59;15.90;99.90
55091;DHT22;40985;53.180;5.800;2023-09-19T08:44:26;16.00;99.90
55091;DHT22;40985;53.180;5.800;2023-09-19T08:46:55;16.10;99.90
55091;DHT22;40985;53.180;5.800;2023-09-19T08:52:09;16.20;99.90
55091;DHT22;40985;53.180;5.800;2023-09-19T08:54:38;16.20;99.90
55091;DHT22;40985;53.180;5.800;2023-09-19T08:57:07;16.20;99.90
55091;DHT22;40985;53.180;5.800;2023-09-19T08:59:41;16.30;99.90
55091;DHT22;40985;53.180;5.800;2023-09-19T09:02:12;16.30;99.90
55091;DHT22;40985;53.180;5.800;2023-09-19T09:04:41;16.30;99.90
55091;DHT22;40985;53.180;5.800;2023-09-19T09:07:12;16.40;99.90
55091;DHT22;40985;53.180;5.800;2023-09-19T09:09:39;16.40;99.90
55091;DHT22;40985;53.180;5.800;2023-09-19T09:12:13;16.40;99.90
55091;DHT22;40985;53.180;5.800;2023-09-19T09:14:44;16.40;99.90
55091;DHT22;40985;53.180;5.800;2023-09-19T09:17:10;16.50;99.90
55091;DHT22;40985;53.180;5.800;2023-09-19T09:19:36;16.60;99.90
55091;DHT22;40985;53.180;5.800;2023-09-19T09:22:10;16.80;99.90
55091;DHT22;40985;53.180;5.800;2023-09-19T09:24:36;16.80;99.90
55091;DHT22;40985;53.180;5.800;2023-09-19T09:27:06;16.90;99.90
55091;DHT22;40985;53.180;5.800;2023-09-19T09:29:43;16.90;99.90
55091;DHT22;40985;53.180;5.800;2023-09-19T09:32:24;17.10;99.90
55091;DHT22;40985;53.180;5.800;2023-09-19T09:35:00;17.20;99.90
55091;DHT22;40985;53.180;5.800;2023-09-19T09:37:27;17.20;99.90
55091;DHT22;40985;53.180;5.800;2023-09-19T09:40:02;17.20;99.90
55091;DHT22;40985;53.180;5.800;2023-09-19T09:42:57;17.10;99.90
55091;DHT22;40985;53.180;5.800;2023-09-19T09:45:25;17.10;99.90
55091;DHT22;40985;53.180;5.800;2023-09-19T09:48:03;17.20;99.90
55091;DHT22;40985;53.180;5.800;2023-09-19T09:50:31;17.40;99.90
55091;DHT22;40985;53.180;5.800;2023-09-19T09:53:26;17.40;99.90
55091;DHT22;40985;53.180;5.800;2023-09-19T09:56:06;17.40;99.90
55091;DHT22;40985;53.180;5.800;2023-09-19T09:58:34;17.40;99.90
55091;DHT22;40985;53.180;5.800;2023-09-19T10:01:01;17.40;99.90
55091;DHT22;40985;53.180;5.800;2023-09-19T10:03:39;17.40;99.90
55091;DHT22;40985;53.180;5.800;2023-09-19T10:06:16;17.40;99.90
55091;DHT22;40985;53.180;5.800;2023-09-19T10:09:08;17.50;99.90
55091;DHT22;40985;53.180;5.800;2023-09-19T10:11:43;17.60;99.90
55091;DHT22;40985;53.180;5.800;2023-09-19T10:14:13;17.60;99.90
55091;DHT22;40985;53.180;5.800;2023-09-19T10:16:47;17.60;99.90
55091;DHT22;40985;53.180;5.800;2023-09-19T10:19:51;17.70;99.90
55091;DHT22;40985;53.180;5.800;2023-09-19T10:22:12;17.70;99.90
55091;DHT22;40985;53.180;5.800;2023-09-19T10:24:40;17.60;99.90
55091;DHT22;40985;53.180;5.800;2023-09-19T10:27:07;17.80;99.90
55091;DHT22;40985;53.180;5.800;2023-09-19T10:29:36;17.70;99.90
55091;DHT22;40985;53.180;5.800;2023-09-19T10:32:05;17.90;99.90
55091;DHT22;40985;53.180;5.800;2023-09-19T10:34:38;17.80;99.90
55091;DHT22;40985;53.180;5.800;2023-09-19T10:37:08;17.60;99.90
55091;DHT22;40985;53.180;5.800;2023-09-19T10:39:39;17.50;99.90
55091;DHT22;40985;53.180;5.800;2023-09-19T10:42:07;17.40;99.90
55091;DHT22;40985;53.180;5.800;2023-09-19T10:44:38;17.20;99.90
55091;DHT22;40985;53.180;5.800;2023-09-19T10:47:08;17.20;99.90
55091;DHT22;40985;53.180;5.800;2023-09-19T10:49:34;17.20;99.90
55091;DHT22;40985;53.180;5.800;2023-09-19T10:52:01;17.10;99.90
55091;DHT22;40985;53.180;5.800;2023-09-19T10:54:33;17.10;99.90
55091;DHT22;40985;53.180;5.800;2023-09-19T10:57:02;17.00;99.90
55091;DHT22;40985;53.180;5.800;2023-09-19T10:59:30;17.10;99.90
55091;DHT22;40985;53.180;5.800;2023-09-19T11:02:00;17.30;99.90
55091;DHT22;40985;53.180;5.800;2023-09-19T11:04:40;17.50;99.90
55091;DHT22;40985;53.180;5.800;2023-09-19T11:07:07;17.50;99.90
55091;DHT22;40985;53.180;5.800;2023-09-19T11:12:11;17.60;99.90
55091;DHT22;40985;53.180;5.800;2023-09-19T11:14:38;17.40;99.90
55091;DHT22;40985;53.180;5.800;2023-09-19T11:30:33;17.10;99.90
55091;DHT22;40985;53.180;5.800;2023-09-19T11:36:16;17.10;99.90
55091;DHT22;40985;53.180;5.800;2023-09-19T11:43:46;16.60;99.90
55091;DHT22;40985;53.180;5.800;2023-09-19T11:46:12;16.40;99.90
55091;DHT22;40985;53.180;5.800;2023-09-19T11:48:43;16.20;99.90
55091;DHT22;40985;53.180;5.800;2023-09-19T11:51:37;16.10;99.90
55091;DHT22;40985;53.180;5.800;2023-09-19T11:54:10;15.90;99.90
55091;DHT22;40985;53.180;5.800;2023-09-19T11:56:43;15.90;99.90
55091;DHT22;40985;53.180;5.800;2023-09-19T11:59:11;15.80;99.90
55091;DHT22;40985;53.180;5.800;2023-09-19T12:01:41;15.80;99.90
55091;DHT22;40985;53.180;5.800;2023-09-19T12:04:11;15.80;99.90
55091;DHT22;40985;53.180;5.800;2023-09-19T12:06:37;15.90;99.90
55091;DHT22;40985;53.180;5.800;2023-09-19T12:09:12;16.10;99.90
55091;DHT22;40985;53.180;5.800;2023-09-19T12:11:43;16.30;99.90
55091;DHT22;40985;53.180;5.800;2023-09-19T12:14:20;16.40;99.90
55091;DHT22;40985;53.180;5.800;2023-09-19T12:16:57;16.40;99.90
55091;DHT22;40985;53.180;5.800;2023-09-19T12:19:24;16.40;99.90
55091;DHT22;40985;53.180;5.800;2023-09-19T12:21:57;16.60;99.90
55091;DHT22;40985;53.180;5.800;2023-09-19T12:24:26;16.70;99.90
55091;DHT22;40985;53.180;5.800;2023-09-19T12:26:59;16.70;99.90
55091;DHT22;40985;53.180;5.800;2023-09-19T12:29:27;16.70;99.90
55091;DHT22;40985;53.180;5.800;2023-09-19T12:31:54;16.80;99.90
55091;DHT22;40985;53.180;5.800;2023-09-19T12:34:27;16.80;99.90
55091;DHT22;40985;53.180;5.800;2023-09-19T12:37:22;16.70;99.90
55091;DHT22;40985;53.180;5.800;2023-09-19T12:39:51;16.60;99.90
55091;DHT22;40985;53.180;5.800;2023-09-19T12:42:24;16.50;99.90
55091;DHT22;40985;53.180;5.800;2023-09-19T12:44:53;16.40;99.90
55091;DHT22;40985;53.180;5.800;2023-09-19T12:47:23;16.30;99.90
55091;DHT22;40985;53.180;5.800;2023-09-19T12:52:43;16.10;99.90
55091;DHT22;40985;53.180;5.800;2023-09-19T12:55:29;16.10;99.90
55091;DHT22;40985;53.180;5.800;2023-09-19T12:58:07;15.90;99.90
55091;DHT22;40985;53.180;5.800;2023-09-19T13:00:44;15.90;99.90
55091;DHT22;40985;53.180;5.800;2023-09-19T13:03:17;16.00;99.90
55091;DHT22;40985;53.180;5.800;2023-09-19T13:05:57;16.10;99.90
55091;DHT22;40985;53.180;5.800;2023-09-19T13:08:31;16.10;99.90
55091;DHT22;40985;53.180;5.800;2023-09-19T13:11:14;16.30;99.90
55091;DHT22;40985;53.180;5.800;2023-09-19T13:13:44;16.20;99.90
55091;DHT22;40985;53.180;5.800;2023-09-19T13:16:10;16.20;99.90
55091;DHT22;40985;53.180;5.800;2023-09-19T13:18:50;16.30;99.90
55091;DHT22;40985;53.180;5.800;2023-09-19T13:21:17;16.40;99.90
55091;DHT22;40985;53.180;5.800;2023-09-19T13:23:50;16.40;99.90
55091;DHT22;40985;53.180;5.800;2023-09-19T13:26:15;16.50;99.90
55091;DHT22;40985;53.180;5.800;2023-09-19T13:28:41;16.60;99.90
55091;DHT22;40985;53.180;5.800;2023-09-19T13:31:07;16.70;99.90
55091;DHT22;40985;53.180;5.800;2023-09-19T13:33:43;16.90;99.90
55091;DHT22;40985;53.180;5.800;2023-09-19T13:36:11;16.90;99.90
55091;DHT22;40985;53.180;5.800;2023-09-19T13:38:37;16.90;99.90
55091;DHT22;40985;53.180;5.800;2023-09-19T13:41:03;16.80;99.90
55091;DHT22;40985;53.180;5.800;2023-09-19T13:43:29;16.80;99.90
55091;DHT22;40985;53.180;5.800;2023-09-19T13:45:55;16.70;99.90
55091;DHT22;40985;53.180;5.800;2023-09-19T13:48:20;16.80;99.90
55091;DHT22;40985;53.180;5.800;2023-09-19T13:50:48;16.70;99.90
55091;DHT22;40985;53.180;5.800;2023-09-19T13:53:15;16.80;99.90
55091;DHT22;40985;53.180;5.800;2023-09-19T13:55:40;16.80;99.90
55091;DHT22;40985;53.180;5.800;2023-09-19T13:58:06;16.80;99.90
55091;DHT22;40985;53.180;5.800;2023-09-19T14:00:33;16.80;99.90
55091;DHT22;40985;53.180;5.800;2023-09-19T14:03:01;16.70;99.90
55091;DHT22;40985;53.180;5.800;2023-09-19T14:05:27;16.60;99.90
55091;DHT22;40985;53.180;5.800;2023-09-19T14:07:53;16.50;99.90
55091;DHT22;40985;53.180;5.800;2023-09-19T14:10:25;16.30;99.90
55091;DHT22;40985;53.180;5.800;2023-09-19T14:12:52;16.20;99.90
55091;DHT22;40985;53.180;5.800;2023-09-19T14:15:18;16.20;99.90
55091;DHT22;40985;53.180;5.800;2023-09-19T14:17:44;16.20;99.90
55091;DHT22;40985;53.180;5.800;2023-09-19T14:20:12;16.10;99.90
55091;DHT22;40985;53.180;5.800;2023-09-19T14:22:39;16.10;99.90
55091;DHT22;40985;53.180;5.800;2023-09-19T14:25:05;16.10;99.90
55091;DHT22;40985;53.180;5.800;2023-09-19T14:27:31;16.20;99.90
55091;DHT22;40985;53.180;5.800;2023-09-19T14:29:57;16.20;99.90
55091;DHT22;40985;53.180;5.800;2023-09-19T14:32:23;16.30;99.90
55091;DHT22;40985;53.180;5.800;2023-09-19T14:34:49;16.30;99.90
55091;DHT22;40985;53.180;5.800;2023-09-19T14:37:15;16.30;99.90
55091;DHT22;40985;53.180;5.800;2023-09-19T14:39:42;16.30;99.90
55091;DHT22;40985;53.180;5.800;2023-09-19T14:42:10;16.30;99.90
55091;DHT22;40985;53.180;5.800;2023-09-19T14:44:36;16.30;99.90
55091;DHT22;40985;53.180;5.800;2023-09-19T14:47:04;16.30;99.90
55091;DHT22;40985;53.180;5.800;2023-09-19T14:49:33;16.40;99.90
55091;DHT22;40985;53.180;5.800;2023-09-19T14:52:00;16.50;99.90
55091;DHT22;40985;53.180;5.800;2023-09-19T14:54:30;16.50;99.90
55091;DHT22;40985;53.180;5.800;2023-09-19T14:56:56;16.50;99.90
55091;DHT22;40985;53.180;5.800;2023-09-19T14:59:33;16.60;99.90
55091;DHT22;40985;53.180;5.800;2023-09-19T15:02:05;16.60;99.90
55091;DHT22;40985;53.180;5.800;2023-09-19T15:04:31;16.70;99.90
55091;DHT22;40985;53.180;5.800;2023-09-19T15:06:56;16.70;99.90
55091;DHT22;40985;53.180;5.800;2023-09-19T15:09:24;16.70;99.90
55091;DHT22;40985;53.180;5.800;2023-09-19T15:11:52;16.70;99.90
55091;DHT22;40985;53.180;5.800;2023-09-19T15:14:18;16.70;99.90
55091;DHT22;40985;53.180;5.800;2023-09-19T15:16:44;16.70;99.90
55091;DHT22;40985;53.180;5.800;2023-09-19T15:19:10;16.60;99.90
55091;DHT22;40985;53.180;5.800;2023-09-19T15:21:36;16.60;99.90
55091;DHT22;40985;53.180;5.800;2023-09-19T15:24:03;16.60;99.90
55091;DHT22;40985;53.180;5.800;2023-09-19T15:26:29;16.60;99.90
55091;DHT22;40985;53.180;5.800;2023-09-19T15:28:55;16.60;99.90
55091;DHT22;40985;53.180;5.800;2023-09-19T15:31:22;16.60;99.90
55091;DHT22;40985;53.180;5.800;2023-09-19T15:33:47;16.60;99.90
55091;DHT22;40985;53.180;5.800;2023-09-19T15:36:15;16.60;99.90
55091;DHT22;40985;53.180;5.800;2023-09-19T15:39:04;16.50;99.90
55091;DHT22;40985;53.180;5.800;2023-09-19T15:41:49;16.50;99.90
55091;DHT22;40985;53.180;5.800;2023-09-19T15:44:18;16.50;99.90
55091;DHT22;40985;53.180;5.800;2023-09-19T15:46:44;16.40;99.90
55091;DHT22;40985;53.180;5.800;2023-09-19T15:49:10;16.30;99.90
55091;DHT22;40985;53.180;5.800;2023-09-19T15:51:37;16.30;99.90
55091;DHT22;40985;53.180;5.800;2023-09-19T15:54:09;16.20;99.90
55091;DHT22;40985;53.180;5.800;2023-09-19T15:56:36;16.10;99.90
55091;DHT22;40985;53.180;5.800;2023-09-19T15:59:02;16.10;99.90
55091;DHT22;40985;53.180;5.800;2023-09-19T16:01:28;16.00;99.90
55091;DHT22;40985;53.180;5.800;2023-09-19T16:03:54;15.90;99.90
55091;DHT22;40985;53.180;5.800;2023-09-19T16:06:23;15.90;99.90
55091;DHT22;40985;53.180;5.800;2023-09-19T16:08:50;16.00;99.90
55091;DHT22;40985;53.180;5.800;2023-09-19T16:11:18;16.00;99.90
55091;DHT22;40985;53.180;5.800;2023-09-19T16:13:47;15.80;99.90
55091;DHT22;40985;53.180;5.800;2023-09-19T16:16:14;16.00;99.90
55091;DHT22;40985;53.180;5.800;2023-09-19T16:18:52;15.80;99.90
55091;DHT22;40985;53.180;5.800;2023-09-19T16:21:19;15.80;99.90
55091;DHT22;40985;53.180;5.800;2023-09-19T16:23:49;15.90;99.90
55091;DHT22;40985;53.180;5.800;2023-09-19T16:26:16;15.70;99.90